Time;durP1;ratioP1;P1;durP2;ratioP2;P2;SDS_P1;SDS_P2;PMS_P1;PMS_P2;Temp;Humidity;BMP_temperature;BMP_pressure;BME280_temperature;BME280_humidity;BME280_pressure;Samples;Min_cycle;Max_cycle;Signal;HPM_P1;HPM_P2
2023/04/24 00:00:14;;;;;;;2.25;1.45;;;;;;;;;;4990310;28;20093;-59
2023/04/24 00:02:46;;;;;;;2.42;1.67;;;;;;;;;;4991226;28;20022;-57
2023/04/24 00:05:12;;;;;;;2.08;1.40;;;;;;;;;;4967072;28;20586;-58
2023/04/24 00:07:37;;;;;;;1.88;1.45;;;;;;;;;;4980385;28;21408;-60
2023/04/24 00:10:03;;;;;;;2.50;1.35;;;;;;;;;;4991941;28;21837;-58
2023/04/24 00:12:28;;;;;;;5.43;1.60;;;;;;;;;;4991178;28;20064;-58
2023/04/24 00:14:53;;;;;;;3.97;1.70;;;;;;;;;;4987170;28;20030;-60
2023/04/24 00:17:20;;;;;;;2.78;1.40;;;;;;;;;;4988732;28;20034;-59
2023/04/24 00:19:51;;;;;;;3.70;1.70;;;;;;;;;;4986778;28;20034;-58
2023/04/24 00:22:17;;;;;;;3.50;1.55;;;;;;;;;;4991264;28;20042;-57
2023/04/24 00:24:42;;;;;;;4.07;1.70;;;;;;;;;;4989033;28;20479;-59
2023/04/24 00:27:08;;;;;;;2.38;1.77;;;;;;;;;;4979112;28;20024;-58
2023/04/24 00:29:33;;;;;;;3.40;1.60;;;;;;;;;;4975420;28;20038;-56
2023/04/24 00:31:59;;;;;;;3.17;1.40;;;;;;;;;;4991097;28;20376;-58
2023/04/24 00:34:24;;;;;;;1.73;1.40;;;;;;;;;;4990719;28;20113;-59
2023/04/24 00:36:52;;;;;;;3.53;1.50;;;;;;;;;;4964905;28;20022;-59
2023/04/24 00:39:20;;;;;;;1.77;1.40;;;;;;;;;;4969537;28;20045;-59
2023/04/24 00:41:47;;;;;;;2.63;1.80;;;;;;;;;;4968752;28;20041;-54
2023/04/24 00:44:12;;;;;;;2.72;1.40;;;;;;;;;;4977058;28;20033;-58
2023/04/24 00:46:37;;;;;;;2.85;1.40;;;;;;;;;;4991111;28;20088;-59
2023/04/24 00:49:04;;;;;;;3.53;1.70;;;;;;;;;;4979652;28;20038;-60
2023/04/24 00:51:30;;;;;;;1.30;1.20;;;;;;;;;;4993666;28;20475;-58
2023/04/24 00:53:56;;;;;;;2.20;1.40;;;;;;;;;;4984058;28;20030;-56
2023/04/24 00:56:21;;;;;;;2.33;1.40;;;;;;;;;;4982857;28;20498;-59
2023/04/24 00:58:47;;;;;;;1.92;1.50;;;;;;;;;;4993039;28;20030;-59
2023/04/24 01:01:12;;;;;;;3.50;1.60;;;;;;;;;;4991151;28;20543;-56
2023/04/24 01:03:38;;;;;;;4.68;1.80;;;;;;;;;;4947101;23;1097309;-58
2023/04/24 01:06:04;;;;;;;4.93;1.70;;;;;;;;;;4947846;28;20082;-57
2023/04/24 01:08:29;;;;;;;4.07;1.70;;;;;;;;;;4948051;28;20489;-57
2023/04/24 01:10:56;;;;;;;1.75;1.38;;;;;;;;;;4934527;29;20034;-58
2023/04/24 01:13:22;;;;;;;3.05;1.30;;;;;;;;;;4932386;29;20061;-58
2023/04/24 01:15:47;;;;;;;3.50;1.58;;;;;;;;;;4946884;28;20040;-59
2023/04/24 01:18:13;;;;;;;3.13;1.55;;;;;;;;;;4931049;29;20127;-60
2023/04/24 01:20:39;;;;;;;2.15;1.50;;;;;;;;;;4929987;29;20103;-58
2023/04/24 01:23:05;;;;;;;2.60;1.48;;;;;;;;;;4929438;29;20043;-56
2023/04/24 01:25:31;;;;;;;1.42;1.30;;;;;;;;;;4931650;29;20038;-57
2023/04/24 01:27:56;;;;;;;2.33;1.40;;;;;;;;;;4947540;28;20046;-58
2023/04/24 01:30:21;;;;;;;5.45;1.50;;;;;;;;;;4930350;29;20039;-60
2023/04/24 01:32:47;;;;;;;1.50;1.20;;;;;;;;;;4935052;29;20059;-57
2023/04/24 01:35:13;;;;;;;2.40;1.38;;;;;;;;;;4933627;29;20035;-59
2023/04/24 01:37:39;;;;;;;1.75;1.27;;;;;;;;;;4931778;29;20032;-58
2023/04/24 01:40:05;;;;;;;2.10;1.65;;;;;;;;;;4930483;29;20082;-60
2023/04/24 01:42:31;;;;;;;3.03;1.40;;;;;;;;;;4932870;29;20031;-54
2023/04/24 01:44:57;;;;;;;2.50;1.40;;;;;;;;;;4915577;29;20090;-57
2023/04/24 01:47:23;;;;;;;2.17;1.40;;;;;;;;;;4929394;29;20082;-57
2023/04/24 01:49:50;;;;;;;3.55;1.50;;;;;;;;;;4947509;28;20368;-57
2023/04/24 01:52:16;;;;;;;2.05;1.50;;;;;;;;;;4946533;28;20069;-58
2023/04/24 01:54:41;;;;;;;2.40;1.40;;;;;;;;;;4929108;29;20536;-60
2023/04/24 01:57:07;;;;;;;2.65;1.40;;;;;;;;;;4931864;29;20039;-58
2023/04/24 01:59:33;;;;;;;3.08;1.50;;;;;;;;;;4932878;29;20118;-59
2023/04/24 02:01:58;;;;;;;3.92;1.58;;;;;;;;;;4927537;29;20035;-56
2023/04/24 02:04:23;;;;;;;4.32;1.50;;;;;;;;;;4930410;29;20044;-58
2023/04/24 02:06:49;;;;;;;3.38;1.58;;;;;;;;;;4930331;29;20042;-58
2023/04/24 02:09:14;;;;;;;2.75;1.35;;;;;;;;;;4950259;28;20039;-58
2023/04/24 02:11:39;;;;;;;4.43;1.50;;;;;;;;;;4935247;29;20038;-57
2023/04/24 02:14:05;;;;;;;5.72;1.50;;;;;;;;;;4926127;29;20039;-58
2023/04/24 02:16:32;;;;;;;2.17;1.40;;;;;;;;;;4934818;29;20046;-54
2023/04/24 02:18:57;;;;;;;;;;;;;;;;;;4931126;29;20047;-54
2023/04/24 02:21:23;;;;;;;1.42;1.30;;;;;;;;;;4948161;28;19957;-57
2023/04/24 02:23:48;;;;;;;3.95;1.50;;;;;;;;;;4930175;29;20620;-57
2023/04/24 02:26:14;;;;;;;3.30;1.58;;;;;;;;;;4933348;29;20039;-57
2023/04/24 02:28:39;;;;;;;4.32;1.50;;;;;;;;;;4931002;28;20044;-58
2023/04/24 02:31:05;;;;;;;2.67;1.60;;;;;;;;;;4929688;29;20047;-57
2023/04/24 02:33:31;;;;;;;1.40;1.30;;;;;;;;;;4930723;29;20402;-55
2023/04/24 02:35:56;;;;;;;2.63;1.50;;;;;;;;;;4933344;29;20035;-56
2023/04/24 02:38:21;;;;;;;2.60;1.30;;;;;;;;;;4925285;29;20047;-57
2023/04/24 02:40:47;;;;;;;3.55;1.40;;;;;;;;;;4930143;29;20067;-60
2023/04/24 02:43:12;;;;;;;2.72;1.48;;;;;;;;;;4926711;29;20043;-58
2023/04/24 02:45:38;;;;;;;7.30;1.50;;;;;;;;;;4928415;29;20035;-58
2023/04/24 02:48:04;;;;;;;3.33;1.50;;;;;;;;;;4928518;29;20032;-57
2023/04/24 02:50:29;;;;;;;2.33;1.50;;;;;;;;;;4930357;29;20027;-58
2023/04/24 02:52:54;;;;;;;2.80;1.50;;;;;;;;;;4912138;29;20102;-58
2023/04/24 02:55:19;;;;;;;3.72;1.38;;;;;;;;;;4930058;29;20040;-57
2023/04/24 02:57:45;;;;;;;3.30;1.40;;;;;;;;;;4945300;28;20055;-57
2023/04/24 03:00:11;;;;;;;1.92;1.38;;;;;;;;;;4928913;29;20103;-58
2023/04/24 03:02:36;;;;;;;3.25;1.40;;;;;;;;;;4932405;28;20027;-58
2023/04/24 03:05:02;;;;;;;2.00;1.30;;;;;;;;;;4947751;28;20035;-57
2023/04/24 03:07:27;;;;;;;1.42;1.33;;;;;;;;;;4928324;29;20496;-57
2023/04/24 03:09:52;;;;;;;2.47;1.48;;;;;;;;;;4932644;29;20047;-54
2023/04/24 03:12:18;;;;;;;1.83;1.33;;;;;;;;;;4927495;29;20458;-58
2023/04/24 03:14:43;;;;;;;3.30;1.67;;;;;;;;;;4931815;29;20027;-57
2023/04/24 03:17:09;;;;;;;3.25;1.52;;;;;;;;;;4933388;29;20065;-57
2023/04/24 03:19:34;;;;;;;2.53;1.50;;;;;;;;;;4929704;29;20059;-58
2023/04/24 03:22:04;;;;;;;5.32;1.60;;;;;;;;;;4930695;29;20057;-58
2023/04/24 03:24:30;;;;;;;2.08;1.40;;;;;;;;;;4932048;29;20035;-57
2023/04/24 03:26:56;;;;;;;2.63;1.35;;;;;;;;;;4926998;29;20028;-61
2023/04/24 03:29:40;;;;;;;3.33;1.50;;;;;;;;;;4926427;29;20698;-61
2023/04/24 03:32:05;;;;;;;3.78;1.55;;;;;;;;;;4943511;28;20043;-58
2023/04/24 03:34:31;;;;;;;2.95;1.60;;;;;;;;;;4944522;28;20082;-56
2023/04/24 03:36:57;;;;;;;6.13;1.70;;;;;;;;;;4930681;28;20031;-58
2023/04/24 03:39:25;;;;;;;4.13;1.45;;;;;;;;;;4928722;29;20393;-58
2023/04/24 03:41:54;;;;;;;3.65;1.60;;;;;;;;;;4930944;28;20040;-58
2023/04/24 03:44:25;;;;;;;4.95;1.58;;;;;;;;;;4925392;29;20062;-58
2023/04/24 03:46:50;;;;;;;2.78;1.60;;;;;;;;;;4927372;29;20362;-57
2023/04/24 03:49:17;;;;;;;3.10;1.70;;;;;;;;;;4930560;28;20046;-59
2023/04/24 03:51:45;;;;;;;4.22;1.73;;;;;;;;;;4927720;29;20042;-59
2023/04/24 03:54:17;;;;;;;2.40;1.73;;;;;;;;;;4927586;29;20396;-60
2023/04/24 03:56:43;;;;;;;2.25;1.50;;;;;;;;;;4931765;29;20363;-59
2023/04/24 03:59:09;;;;;;;3.58;1.50;;;;;;;;;;4929796;29;20039;-59
2023/04/24 04:01:39;;;;;;;1.87;1.60;;;;;;;;;;4929071;29;20082;-59
2023/04/24 04:04:10;;;;;;;2.67;1.50;;;;;;;;;;4944896;28;20450;-58
2023/04/24 04:06:36;;;;;;;3.88;1.60;;;;;;;;;;4929373;29;20035;-58
2023/04/24 04:09:03;;;;;;;2.05;1.52;;;;;;;;;;4926645;29;20050;-58
2023/04/24 04:11:29;;;;;;;6.63;2.97;;;;;;;;;;4924627;29;20028;-61
2023/04/24 04:13:54;;;;;;;3.50;2.03;;;;;;;;;;4941901;28;20035;-58
2023/04/24 04:16:21;;;;;;;2.70;1.70;;;;;;;;;;4934905;28;20500;-57
2023/04/24 04:18:48;;;;;;;;;;;;;;;;;;4951936;28;20492;-58
2023/04/24 04:21:14;;;;;;;2.10;1.77;;;;;;;;;;4913794;29;19915;-57
2023/04/24 04:23:40;;;;;;;2.50;1.63;;;;;;;;;;4914525;29;20040;-57
2023/04/24 04:26:16;;;;;;;4.28;1.88;;;;;;;;;;4930099;29;20040;-58
2023/04/24 04:29:18;;;;;;;4.20;1.70;;;;;;;;;;4924945;29;20048;-59
2023/04/24 04:31:44;;;;;;;7.82;3.10;;;;;;;;;;4950786;28;20065;-59
2023/04/24 04:34:12;;;;;;;7.53;2.78;;;;;;;;;;4933431;29;20039;-58
2023/04/24 04:36:39;;;;;;;7.13;2.65;;;;;;;;;;4947248;28;20030;-61
2023/04/24 04:39:22;;;;;;;3.75;1.40;;;;;;;;;;4931834;29;20052;-56
2023/04/24 04:41:56;;;;;;;4.07;1.63;;;;;;;;;;4933411;29;20032;-54
2023/04/24 04:44:27;;;;;;;1.80;1.30;;;;;;;;;;4930057;29;20031;-61
2023/04/24 04:46:56;;;;;;;4.80;1.50;;;;;;;;;;4948765;28;20078;-61
2023/04/24 04:49:28;;;;;;;3.33;1.50;;;;;;;;;;4932955;29;20504;-61
2023/04/24 04:51:53;;;;;;;3.85;1.55;;;;;;;;;;4929015;29;20510;-61
2023/04/24 04:54:19;;;;;;;4.50;1.73;;;;;;;;;;4930443;29;20576;-59
2023/04/24 04:56:44;;;;;;;2.65;1.50;;;;;;;;;;4911474;29;20122;-59
2023/04/24 04:59:10;;;;;;;5.72;1.90;;;;;;;;;;4928598;29;20048;-60
2023/04/24 05:01:38;;;;;;;2.45;1.40;;;;;;;;;;4926940;29;20465;-59
2023/04/24 05:04:05;;;;;;;4.00;1.80;;;;;;;;;;4947566;28;20043;-59
2023/04/24 05:06:31;;;;;;;3.42;1.85;;;;;;;;;;4930701;29;20037;-59
2023/04/24 05:08:57;;;;;;;2.53;1.60;;;;;;;;;;4934231;29;20036;-59
2023/04/24 05:11:35;;;;;;;2.47;1.63;;;;;;;;;;4924797;29;20039;-59
2023/04/24 05:14:01;;;;;;;2.00;1.67;;;;;;;;;;4951147;28;20042;-58
2023/04/24 05:16:33;;;;;;;3.50;1.95;;;;;;;;;;4916349;29;20038;-58
2023/04/24 05:18:59;;;;;;;3.28;2.00;;;;;;;;;;4932137;29;20404;-59
2023/04/24 05:21:31;;;;;;;4.60;1.98;;;;;;;;;;4930579;28;20326;-58
2023/04/24 05:23:56;;;;;;;3.30;2.03;;;;;;;;;;4934891;29;20481;-58
2023/04/24 05:26:40;;;;;;;4.82;2.17;;;;;;;;;;4930182;29;20122;-58
2023/04/24 05:29:06;;;;;;;5.70;2.22;;;;;;;;;;4923170;28;20035;-59
2023/04/24 05:31:32;;;;;;;6.90;2.10;;;;;;;;;;4930310;29;20038;-59
2023/04/24 05:33:58;;;;;;;3.38;2.13;;;;;;;;;;4927171;29;20028;-59
2023/04/24 05:36:23;;;;;;;4.43;2.28;;;;;;;;;;4936229;29;20032;-58
2023/04/24 05:38:48;;;;;;;6.80;2.60;;;;;;;;;;4951176;28;20082;-59
2023/04/24 05:41:14;;;;;;;4.45;2.40;;;;;;;;;;4936072;28;20148;-58
2023/04/24 05:43:40;;;;;;;5.50;2.80;;;;;;;;;;4930448;29;20039;-59
2023/04/24 05:46:06;;;;;;;5.63;2.50;;;;;;;;;;4946316;28;20062;-60
2023/04/24 05:48:31;;;;;;;4.68;2.60;;;;;;;;;;4932802;29;20730;-59
2023/04/24 05:50:59;;;;;;;3.55;2.60;;;;;;;;;;4939283;29;20024;-59
2023/04/24 05:53:24;;;;;;;4.72;2.70;;;;;;;;;;4931967;29;20055;-58
2023/04/24 05:55:50;;;;;;;6.93;3.03;;;;;;;;;;4949822;28;20035;-58
2023/04/24 05:58:15;;;;;;;3.90;2.58;;;;;;;;;;4935448;29;20074;-59
2023/04/24 06:00:42;;;;;;;7.10;3.00;;;;;;;;;;4929809;29;20420;-58
2023/04/24 06:03:08;;;;;;;7.25;3.00;;;;;;;;;;4935201;29;20544;-58
2023/04/24 06:05:33;;;;;;;7.13;3.03;;;;;;;;;;4934996;29;20042;-58
2023/04/24 06:07:59;;;;;;;4.15;2.35;;;;;;;;;;4935945;28;20098;-58
2023/04/24 06:10:31;;;;;;;4.65;2.60;;;;;;;;;;4936629;29;20043;-57
2023/04/24 06:13:00;;;;;;;4.57;2.70;;;;;;;;;;4937681;29;20388;-55
2023/04/24 06:15:26;;;;;;;7.45;2.90;;;;;;;;;;4928943;29;20028;-53
2023/04/24 06:17:56;;;;;;;4.78;2.80;;;;;;;;;;4946647;28;20147;-56
2023/04/24 06:20:21;;;;;;;4.93;2.80;;;;;;;;;;4932426;29;20389;-54
2023/04/24 06:22:47;;;;;;;4.15;3.10;;;;;;;;;;4951237;28;20083;-53
2023/04/24 06:25:12;;;;;;;3.72;2.90;;;;;;;;;;4935908;28;20080;-55
2023/04/24 06:27:37;;;;;;;5.90;2.95;;;;;;;;;;4934997;29;20458;-57
2023/04/24 06:30:03;;;;;;;5.70;3.00;;;;;;;;;;4936830;28;20358;-53
2023/04/24 06:32:28;;;;;;;7.03;3.45;;;;;;;;;;4939587;29;20030;-52
2023/04/24 06:34:53;;;;;;;8.65;3.10;;;;;;;;;;4929322;29;20024;-56
2023/04/24 06:37:20;;;;;;;7.65;3.80;;;;;;;;;;4935609;28;20091;-56
2023/04/24 06:39:45;;;;;;;5.47;3.77;;;;;;;;;;4935394;29;20493;-54
2023/04/24 06:42:11;;;;;;;6.18;3.88;;;;;;;;;;4939502;29;20274;-55
2023/04/24 06:44:40;;;;;;;5.25;3.65;;;;;;;;;;4935882;29;20027;-58
2023/04/24 06:47:07;;;;;;;8.23;3.50;;;;;;;;;;4934481;29;20035;-56
2023/04/24 06:49:32;;;;;;;6.60;3.47;;;;;;;;;;4934722;29;20043;-54
2023/04/24 06:51:57;;;;;;;6.03;3.58;;;;;;;;;;4935795;29;20059;-53
2023/04/24 06:54:22;;;;;;;7.70;3.60;;;;;;;;;;4934094;29;20027;-55
2023/04/24 06:56:49;;;;;;;6.32;3.63;;;;;;;;;;4933268;29;20461;-54
2023/04/24 06:59:14;;;;;;;6.55;3.33;;;;;;;;;;4935627;29;20039;-57
2023/04/24 07:01:40;;;;;;;4.55;3.60;;;;;;;;;;4933561;29;20405;-54
2023/04/24 07:04:05;;;;;;;5.90;3.35;;;;;;;;;;4936700;29;20390;-57
2023/04/24 07:06:31;;;;;;;5.43;3.10;;;;;;;;;;4932367;29;20044;-54
2023/04/24 07:08:56;;;;;;;5.07;3.30;;;;;;;;;;4934561;29;20119;-55
2023/04/24 07:11:22;;;;;;;5.47;2.95;;;;;;;;;;4935111;29;20029;-53
2023/04/24 07:13:47;;;;;;;4.82;3.38;;;;;;;;;;4937302;28;20421;-54
2023/04/24 07:16:13;;;;;;;6.22;3.00;;;;;;;;;;4934648;29;20042;-59
2023/04/24 07:18:39;;;;;;;5.10;3.05;;;;;;;;;;4935337;29;20386;-54
2023/04/24 07:21:04;;;;;;;7.27;2.90;;;;;;;;;;4949269;28;20039;-57
2023/04/24 07:23:31;;;;;;;6.05;2.80;;;;;;;;;;4936078;29;20135;-56
2023/04/24 07:25:56;;;;;;;8.00;2.83;;;;;;;;;;4934195;29;20031;-55
2023/04/24 07:28:21;;;;;;;3.40;2.35;;;;;;;;;;4934161;29;20498;-57
2023/04/24 07:30:47;;;;;;;5.10;2.67;;;;;;;;;;4949150;28;20659;-54
2023/04/24 07:33:13;;;;;;;4.28;2.70;;;;;;;;;;4932887;29;20039;-58
2023/04/24 07:35:38;;;;;;;4.03;2.70;;;;;;;;;;4933726;29;20102;-57
2023/04/24 07:38:03;;;;;;;5.15;2.63;;;;;;;;;;4935407;29;20089;-55
2023/04/24 07:40:29;;;;;;;4.10;2.95;;;;;;;;;;4934434;29;20080;-56
2023/04/24 07:42:54;;;;;;;4.07;2.78;;;;;;;;;;4937766;29;20027;-56
2023/04/24 07:45:20;;;;;;;5.15;2.88;;;;;;;;;;4936278;29;20044;-55
2023/04/24 07:47:45;;;;;;;4.10;2.75;;;;;;;;;;4936038;29;20563;-56
2023/04/24 07:50:11;;;;;;;6.78;3.50;;;;;;;;;;4935241;29;20043;-58
2023/04/24 07:52:37;;;;;;;7.93;2.88;;;;;;;;;;4949594;28;20058;-54
2023/04/24 07:55:02;;;;;;;5.35;2.88;;;;;;;;;;4936319;29;20426;-58
2023/04/24 07:57:28;;;;;;;5.43;2.60;;;;;;;;;;4934677;28;20031;-56
2023/04/24 07:59:53;;;;;;;4.90;3.00;;;;;;;;;;4932774;29;20043;-58
2023/04/24 08:02:19;;;;;;;4.65;2.83;;;;;;;;;;4932645;29;20041;-53
2023/04/24 08:04:45;;;;;;;4.32;2.80;;;;;;;;;;4935925;29;20604;-54
2023/04/24 08:07:12;;;;;;;4.45;2.90;;;;;;;;;;4936209;29;20020;-56
2023/04/24 08:09:37;;;;;;;;;;;;;;;;;;4933734;29;20116;-55
2023/04/24 08:12:03;;;;;;;4.18;2.30;;;;;;;;;;4932736;29;19915;-56
2023/04/24 08:14:28;;;;;;;5.25;2.55;;;;;;;;;;4937335;29;20027;-56
2023/04/24 08:16:55;;;;;;;4.90;2.45;;;;;;;;;;4938016;29;20358;-56
2023/04/24 08:19:20;;;;;;;6.10;2.67;;;;;;;;;;4934541;29;20450;-58
2023/04/24 08:21:45;;;;;;;4.50;2.40;;;;;;;;;;4932503;29;20534;-55
2023/04/24 08:24:11;;;;;;;4.97;2.70;;;;;;;;;;4934686;29;20089;-55
2023/04/24 08:26:36;;;;;;;3.92;2.30;;;;;;;;;;4929212;29;20051;-59
2023/04/24 08:29:01;;;;;;;4.75;2.50;;;;;;;;;;4933600;28;20082;-58
2023/04/24 08:31:27;;;;;;;5.30;2.47;;;;;;;;;;4933869;28;20455;-57
2023/04/24 08:33:52;;;;;;;3.88;2.33;;;;;;;;;;4936846;29;20070;-58
2023/04/24 08:36:18;;;;;;;4.30;2.38;;;;;;;;;;4932558;28;20028;-59
2023/04/24 08:38:43;;;;;;;3.72;2.47;;;;;;;;;;4930026;29;20047;-60
2023/04/24 08:41:09;;;;;;;5.43;2.40;;;;;;;;;;4931086;29;20656;-59
2023/04/24 08:43:36;;;;;;;5.50;2.22;;;;;;;;;;4927926;29;20075;-59
2023/04/24 08:46:01;;;;;;;4.50;2.10;;;;;;;;;;4930706;29;20090;-57
2023/04/24 08:48:27;;;;;;;3.30;2.00;;;;;;;;;;4931421;29;20130;-58
2023/04/24 08:50:52;;;;;;;3.38;1.88;;;;;;;;;;4931853;29;20118;-59
2023/04/24 08:53:18;;;;;;;5.07;1.80;;;;;;;;;;4927135;29;20027;-56
2023/04/24 08:55:46;;;;;;;3.17;1.83;;;;;;;;;;4929706;29;20036;-54
2023/04/24 08:58:12;;;;;;;2.95;1.80;;;;;;;;;;4932032;29;20450;-57
2023/04/24 09:00:38;;;;;;;4.03;1.80;;;;;;;;;;4930797;29;20378;-59
2023/04/24 09:03:05;;;;;;;3.50;1.83;;;;;;;;;;4934339;29;20035;-57
2023/04/24 09:05:30;;;;;;;4.10;1.80;;;;;;;;;;4936244;29;20086;-57
2023/04/24 09:07:56;;;;;;;3.53;1.80;;;;;;;;;;4932999;29;20460;-58
2023/04/24 09:10:22;;;;;;;2.92;1.70;;;;;;;;;;4933883;29;20085;-58
2023/04/24 09:12:49;;;;;;;3.38;1.70;;;;;;;;;;4935563;28;20409;-54
2023/04/24 09:15:15;;;;;;;5.18;1.85;;;;;;;;;;4943279;29;20794;-57
2023/04/24 09:17:40;;;;;;;2.80;1.80;;;;;;;;;;4955621;28;20528;-58
2023/04/24 09:20:06;;;;;;;4.25;1.92;;;;;;;;;;4934816;29;20511;-58
2023/04/24 09:22:31;;;;;;;3.70;1.77;;;;;;;;;;4934725;29;20680;-56
2023/04/24 09:25:02;;;;;;;3.03;1.80;;;;;;;;;;4933639;29;20358;-57
2023/04/24 09:27:28;;;;;;;4.03;1.70;;;;;;;;;;4930905;29;20039;-57
2023/04/24 09:29:54;;;;;;;4.53;1.90;;;;;;;;;;4936419;29;20043;-57
2023/04/24 09:32:25;;;;;;;3.13;1.80;;;;;;;;;;4949968;28;20036;-57
2023/04/24 09:35:06;;;;;;;3.35;1.80;;;;;;;;;;4931456;29;20138;-60
2023/04/24 09:37:34;;;;;;;5.00;1.90;;;;;;;;;;4933909;29;20027;-58
2023/04/24 09:40:08;;;;;;;5.70;2.10;;;;;;;;;;4933460;29;20047;-58
2023/04/24 09:42:34;;;;;;;5.43;2.35;;;;;;;;;;4935758;29;20067;-58
2023/04/24 09:44:59;;;;;;;4.03;1.75;;;;;;;;;;4940205;29;20039;-57
2023/04/24 09:47:24;;;;;;;3.75;1.90;;;;;;;;;;4935530;29;20142;-57
2023/04/24 09:49:50;;;;;;;6.68;2.10;;;;;;;;;;4935705;29;20702;-59
2023/04/24 09:52:15;;;;;;;5.28;1.80;;;;;;;;;;4935138;28;20051;-57
2023/04/24 09:54:40;;;;;;;3.60;1.95;;;;;;;;;;4928857;29;20047;-56
2023/04/24 09:57:09;;;;;;;4.82;2.42;;;;;;;;;;4935121;29;20038;-57
2023/04/24 09:59:34;;;;;;;2.78;1.92;;;;;;;;;;4934876;29;20086;-57
2023/04/24 10:02:00;;;;;;;2.92;1.60;;;;;;;;;;4936305;29;20043;-59
2023/04/24 10:04:26;;;;;;;1.98;1.50;;;;;;;;;;4934931;29;20039;-58
2023/04/24 10:06:53;;;;;;;3.13;1.60;;;;;;;;;;4936644;29;20378;-59
2023/04/24 10:09:19;;;;;;;12.87;3.93;;;;;;;;;;4935662;29;20051;-61
2023/04/24 10:11:46;;;;;;;2.28;1.73;;;;;;;;;;4936424;29;20266;-62
2023/04/24 10:14:18;;;;;;;2.85;1.70;;;;;;;;;;4936785;28;20035;-60
2023/04/24 10:16:44;;;;;;;5.78;1.90;;;;;;;;;;4947059;28;20776;-57
2023/04/24 10:19:10;;;;;;;4.80;1.90;;;;;;;;;;4932582;29;20494;-58
2023/04/24 10:21:42;;;;;;;3.10;1.80;;;;;;;;;;4935875;28;20031;-58
2023/04/24 10:24:07;;;;;;;4.03;1.63;;;;;;;;;;4936552;29;20019;-58
2023/04/24 10:26:33;;;;;;;4.97;2.03;;;;;;;;;;4937090;29;20032;-57
2023/04/24 10:28:58;;;;;;;2.67;1.77;;;;;;;;;;4934696;29;20261;-57
2023/04/24 10:31:25;;;;;;;3.20;1.80;;;;;;;;;;4936862;28;20043;-58
2023/04/24 10:33:51;;;;;;;2.30;1.73;;;;;;;;;;4935026;28;20046;-57
2023/04/24 10:36:17;;;;;;;2.42;1.80;;;;;;;;;;4933194;29;20109;-58
2023/04/24 10:38:44;;;;;;;4.75;1.80;;;;;;;;;;4934175;29;20071;-58
2023/04/24 10:41:15;;;;;;;2.67;2.03;;;;;;;;;;4935260;28;20038;-57
2023/04/24 10:43:41;;;;;;;4.90;2.42;;;;;;;;;;4937504;29;20040;-58
2023/04/24 10:46:07;;;;;;;2.42;1.90;;;;;;;;;;4937880;29;20028;-59
2023/04/24 10:48:33;;;;;;;4.03;2.20;;;;;;;;;;4935886;28;20541;-58
2023/04/24 10:50:58;;;;;;;4.03;2.33;;;;;;;;;;4935548;29;20031;-57
2023/04/24 10:53:26;;;;;;;3.75;2.20;;;;;;;;;;4934371;29;20406;-59
2023/04/24 10:55:52;;;;;;;3.65;1.90;;;;;;;;;;4932012;29;20035;-58
2023/04/24 10:58:23;;;;;;;4.13;2.13;;;;;;;;;;4937094;29;20039;-58
2023/04/24 11:00:59;;;;;;;5.25;2.15;;;;;;;;;;4935764;29;20439;-58
2023/04/24 11:03:25;;;;;;;3.40;1.95;;;;;;;;;;4932664;29;20040;-59
2023/04/24 11:05:58;;;;;;;3.43;1.80;;;;;;;;;;4932771;29;20568;-58
2023/04/24 11:08:25;;;;;;;3.97;2.08;;;;;;;;;;4935163;29;20644;-58
2023/04/24 11:11:11;;;;;;;3.25;1.80;;;;;;;;;;4932738;29;20122;-58
2023/04/24 11:13:54;;;;;;;5.28;2.00;;;;;;;;;;4930455;28;20032;-58
2023/04/24 11:16:23;;;;;;;6.70;2.45;;;;;;;;;;4935154;28;20031;-59
2023/04/24 11:18:54;;;;;;;3.35;2.45;;;;;;;;;;4933717;29;20098;-59
2023/04/24 11:21:20;;;;;;;4.25;2.03;;;;;;;;;;4932543;29;20043;-58
2023/04/24 11:23:46;;;;;;;5.45;2.20;;;;;;;;;;4934568;28;20047;-59
2023/04/24 11:26:32;;;;;;;3.15;2.10;;;;;;;;;;4934080;28;20036;-59
2023/04/24 11:29:06;;;;;;;4.80;2.13;;;;;;;;;;4935964;29;20063;-58
2023/04/24 11:31:39;;;;;;;4.03;2.30;;;;;;;;;;4930199;29;20043;-58
2023/04/24 11:34:07;;;;;;;3.17;2.00;;;;;;;;;;4934163;29;20443;-58
2023/04/24 11:36:33;;;;;;;6.03;2.20;;;;;;;;;;4934199;29;20042;-58
2023/04/24 11:38:59;;;;;;;3.83;2.05;;;;;;;;;;4937773;29;20047;-60
2023/04/24 11:41:25;;;;;;;4.70;2.40;;;;;;;;;;4931669;28;20034;-58
2023/04/24 11:43:52;;;;;;;3.37;2.17;;;;;;;;;;4933071;29;20067;-59
2023/04/24 11:46:17;;;;;;;4.82;2.10;;;;;;;;;;4935374;29;20627;-59
2023/04/24 11:48:45;;;;;;;4.75;2.10;;;;;;;;;;4932976;28;20047;-59
2023/04/24 11:51:11;;;;;;;3.17;2.13;;;;;;;;;;4932729;29;20039;-60
2023/04/24 11:53:37;;;;;;;2.80;1.93;;;;;;;;;;4935572;29;20039;-59
2023/04/24 11:56:03;;;;;;;2.58;1.73;;;;;;;;;;4932210;29;20027;-59
2023/04/24 11:58:34;;;;;;;4.38;2.00;;;;;;;;;;4932529;29;20102;-59
2023/04/24 12:01:01;;;;;;;6.53;1.90;;;;;;;;;;4934061;29;20788;-59
2023/04/24 12:03:26;;;;;;;3.55;2.30;;;;;;;;;;4928489;29;20036;-59
2023/04/24 12:05:51;;;;;;;3.45;2.20;;;;;;;;;;4933131;28;20039;-57
2023/04/24 12:08:27;;;;;;;3.85;2.10;;;;;;;;;;4934640;29;20028;-60
2023/04/24 12:10:52;;;;;;;3.15;2.25;;;;;;;;;;4934191;28;20047;-57
2023/04/24 12:13:17;;;;;;;3.95;2.30;;;;;;;;;;4936275;28;20320;-57
2023/04/24 12:15:43;;;;;;;4.28;2.60;;;;;;;;;;4933239;29;20032;-57
2023/04/24 12:18:11;;;;;;;3.70;2.60;;;;;;;;;;4936488;29;20689;-58
2023/04/24 12:20:36;;;;;;;4.05;2.47;;;;;;;;;;4935566;29;20062;-58
2023/04/24 12:23:02;;;;;;;4.28;2.40;;;;;;;;;;4933934;29;20051;-57
2023/04/24 12:25:34;;;;;;;3.97;2.13;;;;;;;;;;4936218;28;20091;-58
2023/04/24 12:28:05;;;;;;;3.30;2.25;;;;;;;;;;4933963;29;20049;-58
2023/04/24 12:30:31;;;;;;;2.88;2.00;;;;;;;;;;4932484;29;20042;-57
2023/04/24 12:32:57;;;;;;;2.55;1.85;;;;;;;;;;4932591;29;20042;-57
2023/04/24 12:35:24;;;;;;;5.22;2.30;;;;;;;;;;4933875;29;20031;-58
2023/04/24 12:37:49;;;;;;;5.00;2.90;;;;;;;;;;4937253;29;20034;-58
2023/04/24 12:40:15;;;;;;;4.30;2.30;;;;;;;;;;4936568;29;20047;-59
2023/04/24 12:42:43;;;;;;;5.60;2.80;;;;;;;;;;4937448;29;20039;-57
2023/04/24 12:45:09;;;;;;;3.72;2.35;;;;;;;;;;4939300;28;20035;-55
2023/04/24 12:47:35;;;;;;;4.75;2.72;;;;;;;;;;4936701;29;20035;-58
2023/04/24 12:50:00;;;;;;;4.40;2.80;;;;;;;;;;4936006;29;20043;-58
2023/04/24 12:52:26;;;;;;;4.40;2.60;;;;;;;;;;4938159;28;20042;-59
2023/04/24 12:54:56;;;;;;;3.72;2.35;;;;;;;;;;4942133;28;20477;-60
2023/04/24 12:57:21;;;;;;;5.70;2.70;;;;;;;;;;4937298;29;20040;-58
2023/04/24 12:59:47;;;;;;;3.95;2.53;;;;;;;;;;4936448;29;20058;-57
2023/04/24 13:02:12;;;;;;;4.00;2.50;;;;;;;;;;4935499;29;20035;-58
2023/04/24 13:04:38;;;;;;;3.55;2.30;;;;;;;;;;4936200;28;20091;-56
2023/04/24 13:07:03;;;;;;;5.00;2.88;;;;;;;;;;4935604;29;20031;-57
2023/04/24 13:09:28;;;;;;;4.05;2.53;;;;;;;;;;4938189;29;20044;-59
2023/04/24 13:11:54;;;;;;;4.32;2.42;;;;;;;;;;4935701;29;20028;-58
2023/04/24 13:14:19;;;;;;;9.35;2.83;;;;;;;;;;4936158;29;20040;-59
2023/04/24 13:16:45;;;;;;;4.70;2.78;;;;;;;;;;4936726;29;20042;-59
2023/04/24 13:19:10;;;;;;;4.90;2.83;;;;;;;;;;4935784;28;20102;-59
2023/04/24 13:21:36;;;;;;;5.43;2.70;;;;;;;;;;4935327;28;20036;-59
2023/04/24 13:24:01;;;;;;;5.28;2.63;;;;;;;;;;4937986;29;20034;-59
2023/04/24 13:26:26;;;;;;;4.40;2.67;;;;;;;;;;4936017;29;20055;-60
2023/04/24 13:28:52;;;;;;;7.03;3.20;;;;;;;;;;4935505;29;20718;-58
2023/04/24 13:31:17;;;;;;;4.20;2.50;;;;;;;;;;4937095;29;20123;-60
2023/04/24 13:33:42;;;;;;;5.78;2.53;;;;;;;;;;4935959;29;20036;-58
2023/04/24 13:36:08;;;;;;;6.75;2.88;;;;;;;;;;4935071;29;20081;-59
2023/04/24 13:38:33;;;;;;;3.70;2.60;;;;;;;;;;4935595;29;20040;-59
2023/04/24 13:40:59;;;;;;;5.25;3.00;;;;;;;;;;4935718;29;20804;-60
2023/04/24 13:43:24;;;;;;;5.88;2.85;;;;;;;;;;4935730;29;20023;-59
2023/04/24 13:45:50;;;;;;;5.85;3.50;;;;;;;;;;4937909;28;20454;-56
2023/04/24 13:48:15;;;;;;;5.03;2.83;;;;;;;;;;4934984;28;20032;-59
2023/04/24 13:50:41;;;;;;;5.03;2.97;;;;;;;;;;4935933;29;20046;-58
2023/04/24 13:53:06;;;;;;;5.47;2.90;;;;;;;;;;4939849;29;20066;-57
2023/04/24 13:55:32;;;;;;;7.22;2.92;;;;;;;;;;4939024;28;20416;-58
2023/04/24 13:57:57;;;;;;;7.00;3.22;;;;;;;;;;4935321;29;20046;-58
2023/04/24 14:00:23;;;;;;;7.00;3.00;;;;;;;;;;4939478;29;20044;-58
2023/04/24 14:02:48;;;;;;;4.43;2.72;;;;;;;;;;4935769;29;20028;-59
2023/04/24 14:05:15;;;;;;;7.68;2.78;;;;;;;;;;4937007;29;20062;-58
2023/04/24 14:07:40;;;;;;;5.75;2.85;;;;;;;;;;4936208;29;20122;-57
2023/04/24 14:10:06;;;;;;;3.15;2.35;;;;;;;;;;4934332;29;20145;-57
2023/04/24 14:12:32;;;;;;;4.60;2.88;;;;;;;;;;4938075;29;20023;-59
2023/04/24 14:14:57;;;;;;;7.45;2.92;;;;;;;;;;4937121;29;20028;-56
2023/04/24 14:17:22;;;;;;;6.03;2.95;;;;;;;;;;4935767;29;20035;-57
2023/04/24 14:19:48;;;;;;;5.95;3.03;;;;;;;;;;4934850;29;20513;-58
2023/04/24 14:22:13;;;;;;;4.38;2.85;;;;;;;;;;4935077;29;20036;-57
2023/04/24 14:24:38;;;;;;;4.50;2.90;;;;;;;;;;4936498;28;20038;-57
2023/04/24 14:27:04;;;;;;;3.92;2.70;;;;;;;;;;4934094;29;20039;-56
2023/04/24 14:29:29;;;;;;;3.90;2.78;;;;;;;;;;4933662;29;20040;-58
2023/04/24 14:31:54;;;;;;;5.82;3.28;;;;;;;;;;4937346;29;20059;-58
2023/04/24 14:34:20;;;;;;;6.93;2.90;;;;;;;;;;4934942;29;20840;-59
2023/04/24 14:36:45;;;;;;;3.50;2.40;;;;;;;;;;4935601;29;20032;-54
2023/04/24 14:39:11;;;;;;;4.63;2.55;;;;;;;;;;4938853;29;20055;-58